createdAt,value
2023-07-24T00:01:59.791Z,8.07
2023-07-24T00:04:28.573Z,7.87
2023-07-24T00:06:56.327Z,8.33
2023-07-24T00:09:23.758Z,8.10
2023-07-24T00:11:51.166Z,8.53
2023-07-24T00:14:18.779Z,8.33
2023-07-24T00:16:46.263Z,8.80
2023-07-24T00:19:13.859Z,7.90
2023-07-24T00:21:42.637Z,8.37
2023-07-24T00:24:10.057Z,8.23
2023-07-24T00:26:37.583Z,8.80
2023-07-24T00:29:05.032Z,8.73
2023-07-24T00:31:32.450Z,8.60
2023-07-24T00:34:01.674Z,8.67
2023-07-24T00:36:29.439Z,9.53
2023-07-24T00:38:58.420Z,8.50
2023-07-24T00:41:25.879Z,8.57
2023-07-24T00:43:55.538Z,8.57
2023-07-24T00:46:23.247Z,7.87
2023-07-24T00:48:50.931Z,9.20
2023-07-24T00:51:18.492Z,9.17
2023-07-24T00:53:48.560Z,9.73
2023-07-24T00:56:17.393Z,9.17
2023-07-24T00:58:44.878Z,8.57
2023-07-24T01:01:12.617Z,8.37
2023-07-24T01:03:40.442Z,8.77
2023-07-24T01:06:07.914Z,7.97
2023-07-24T01:08:35.456Z,8.20
2023-07-24T01:11:09.390Z,7.90
2023-07-24T01:13:42.464Z,9.03
2023-07-24T01:16:11.773Z,8.13
2023-07-24T01:18:40.774Z,8.70
2023-07-24T01:21:10.939Z,8.47
2023-07-24T01:23:42.692Z,8.83
2023-07-24T01:26:11.734Z,8.47
2023-07-24T01:28:40.772Z,9.13
2023-07-24T01:31:08.421Z,8.93
2023-07-24T01:33:36.729Z,9.10
2023-07-24T01:36:05.373Z,8.93
2023-07-24T01:38:33.366Z,9.23
2023-07-24T01:41:01.726Z,8.50
2023-07-24T01:43:31.225Z,9.63
2023-07-24T01:45:58.715Z,9.00
2023-07-24T01:48:26.296Z,8.77
2023-07-24T01:50:55.639Z,8.87
2023-07-24T01:53:23.054Z,8.43
2023-07-24T01:55:50.516Z,8.67
2023-07-24T01:58:18.001Z,9.10
2023-07-24T02:00:46.811Z,8.57
2023-07-24T02:03:14.334Z,8.90
2023-07-24T02:05:41.890Z,9.33
2023-07-24T02:08:09.349Z,7.80
2023-07-24T02:10:38.702Z,8.80
2023-07-24T02:13:08.366Z,8.83
2023-07-24T02:15:35.947Z,7.83
2023-07-24T02:18:04.802Z,8.63
2023-07-24T02:20:32.273Z,8.57
2023-07-24T02:22:59.744Z,9.27
2023-07-24T02:25:28.620Z,9.63
2023-07-24T02:27:56.694Z,9.20
2023-07-24T02:30:24.988Z,8.17
2023-07-24T02:32:52.443Z,8.30
2023-07-24T02:35:21.293Z,8.30
2023-07-24T02:37:48.765Z,8.77
2023-07-24T02:40:16.283Z,8.40
2023-07-24T02:42:43.676Z,8.60
2023-07-24T02:45:12.219Z,8.37
2023-07-24T02:47:39.861Z,8.50
2023-07-24T02:50:07.712Z,8.63
2023-07-24T02:52:36.502Z,8.80
2023-07-24T02:55:04.136Z,8.67
2023-07-24T02:57:31.574Z,9.30
2023-07-24T02:59:58.988Z,8.63
2023-07-24T03:02:26.459Z,9.20
2023-07-24T03:04:53.951Z,8.47
2023-07-24T03:07:21.363Z,8.93
2023-07-24T03:09:52.460Z,9.10
2023-07-24T03:12:19.884Z,9.60
2023-07-24T03:14:47.346Z,9.10
2023-07-24T03:17:14.760Z,8.83
2023-07-24T03:19:42.533Z,9.03
2023-07-24T03:22:10.036Z,9.43
2023-07-24T03:24:37.809Z,8.53
2023-07-24T03:27:06.902Z,8.50
2023-07-24T03:29:34.814Z,8.37
2023-07-24T03:32:02.249Z,9.13
2023-07-24T03:34:29.713Z,8.90
2023-07-24T03:36:57.241Z,9.07
2023-07-24T03:39:24.697Z,9.83
2023-07-24T03:41:53.177Z,8.53
2023-07-24T03:44:21.960Z,9.40
2023-07-24T03:46:49.454Z,9.23
2023-07-24T03:49:16.936Z,8.77
2023-07-24T03:51:44.376Z,9.40
2023-07-24T03:54:12.190Z,9.97
2023-07-24T03:56:39.634Z,9.53
2023-07-24T03:59:07.482Z,9.13
2023-07-24T04:01:36.326Z,9.43
2023-07-24T04:04:03.771Z,9.33
2023-07-24T04:06:31.562Z,9.17
2023-07-24T04:08:59.371Z,10.00
2023-07-24T04:11:26.825Z,11.90
2023-07-24T04:13:54.266Z,11.73
2023-07-24T04:16:21.784Z,12.83
2023-07-24T04:18:50.652Z,12.43
2023-07-24T04:21:18.059Z,11.90
2023-07-24T04:23:45.549Z,11.40
2023-07-24T04:26:12.995Z,11.07
2023-07-24T04:28:40.444Z,10.47
2023-07-24T04:31:07.961Z,10.90
2023-07-24T04:33:35.485Z,9.70
2023-07-24T04:36:04.513Z,10.13
2023-07-24T04:38:32.001Z,9.53
2023-07-24T04:41:02.041Z,9.97
2023-07-24T04:43:29.545Z,10.40
2023-07-24T04:45:57.035Z,9.97
2023-07-24T04:48:24.554Z,10.10
2023-07-24T04:50:54.963Z,10.17
2023-07-24T04:53:24.115Z,9.10
2023-07-24T04:55:51.561Z,10.00
2023-07-24T04:58:18.988Z,10.07
2023-07-24T05:00:46.402Z,9.40
2023-07-24T05:03:13.839Z,10.13
2023-07-24T05:05:45.091Z,10.47
2023-07-24T05:08:13.952Z,11.40
2023-07-24T05:10:42.770Z,10.87
2023-07-24T05:13:12.803Z,10.67
2023-07-24T05:15:41.274Z,10.90
2023-07-24T05:18:08.684Z,11.17
2023-07-24T05:20:36.206Z,8.33
2023-07-24T05:23:03.736Z,6.77
2023-07-24T05:25:31.216Z,6.33
2023-07-24T05:28:00.030Z,6.63
2023-07-24T05:30:27.840Z,5.50
2023-07-24T05:32:55.359Z,5.67
2023-07-24T05:35:22.778Z,5.73
2023-07-24T05:37:50.307Z,5.67
2023-07-24T05:40:16.894Z,5.97
2023-07-24T05:42:44.548Z,5.37
2023-07-24T05:45:13.442Z,6.43
2023-07-24T05:47:40.860Z,6.77
2023-07-24T05:50:08.661Z,6.10
2023-07-24T05:52:36.127Z,6.60
2023-07-24T05:55:04.152Z,6.30
2023-07-24T05:57:31.655Z,6.07
2023-07-24T05:59:59.104Z,5.93
2023-07-24T06:02:27.961Z,6.37
2023-07-24T06:04:55.493Z,6.30
2023-07-24T06:07:23.006Z,5.83
2023-07-24T06:09:50.502Z,5.70
2023-07-24T06:12:18.044Z,6.13
2023-07-24T06:14:46.221Z,6.40
2023-07-24T06:17:13.702Z,6.13
2023-07-24T06:19:42.591Z,6.40
2023-07-24T06:22:10.069Z,6.60
2023-07-24T06:24:37.527Z,6.53
2023-07-24T06:27:07.382Z,6.17
2023-07-24T06:29:34.977Z,6.53
2023-07-24T06:32:02.827Z,6.20
2023-07-24T06:34:30.365Z,6.27
2023-07-24T06:37:09.047Z,5.70
2023-07-24T06:39:40.474Z,6.20
2023-07-24T06:42:07.995Z,6.33
2023-07-24T06:44:35.412Z,6.07
2023-07-24T06:47:02.981Z,6.10
2023-07-24T06:49:30.384Z,6.43
2023-07-24T06:51:59.329Z,5.60
2023-07-24T06:54:26.798Z,5.47
2023-07-24T06:56:54.264Z,6.17
2023-07-24T06:59:21.728Z,6.07
2023-07-24T07:01:49.160Z,6.13
2023-07-24T07:04:16.662Z,5.93
2023-07-24T07:06:44.117Z,6.53
2023-07-24T07:09:12.911Z,6.13
2023-07-24T07:11:40.569Z,5.90
2023-07-24T07:14:09.918Z,5.97
2023-07-24T07:16:37.388Z,5.90
2023-07-24T07:19:04.866Z,5.63
2023-07-24T07:21:32.355Z,5.90
2023-07-24T07:23:59.815Z,5.83
2023-07-24T07:26:30.465Z,6.53
2023-07-24T07:28:58.117Z,6.23
2023-07-24T07:31:25.584Z,6.03
2023-07-24T07:33:53.090Z,6.20
2023-07-24T07:36:20.602Z,6.43
2023-07-24T07:38:48.028Z,6.40
2023-07-24T07:41:15.522Z,5.37
2023-07-24T07:43:44.279Z,6.10
2023-07-24T07:46:12.092Z,5.27
2023-07-24T07:48:39.546Z,5.73
2023-07-24T07:51:06.959Z,5.90
2023-07-24T07:53:34.427Z,5.60
2023-07-24T07:56:01.947Z,7.07
2023-07-24T07:58:29.488Z,6.90
2023-07-24T08:00:58.322Z,6.20
2023-07-24T08:03:25.847Z,6.37
2023-07-24T08:05:53.302Z,6.80
2023-07-24T08:08:20.785Z,6.80
2023-07-24T08:10:48.297Z,6.70
2023-07-24T08:13:15.754Z,6.37
2023-07-24T08:15:43.204Z,6.67
2023-07-24T08:18:12.048Z,6.50
2023-07-24T08:20:39.868Z,6.77
2023-07-24T08:23:07.336Z,6.13
2023-07-24T08:25:34.886Z,6.60
2023-07-24T08:28:05.780Z,6.00
2023-07-24T08:30:34.163Z,6.50
2023-07-24T08:33:01.740Z,6.43
2023-07-24T08:35:30.586Z,6.40
2023-07-24T08:37:58.095Z,6.23
2023-07-24T08:40:25.591Z,5.77
2023-07-24T08:42:53.474Z,5.93
2023-07-24T08:45:22.083Z,5.60
2023-07-24T08:47:49.605Z,5.60
2023-07-24T08:50:18.414Z,6.20
2023-07-24T08:52:47.985Z,6.10
2023-07-24T08:55:15.587Z,6.33
2023-07-24T08:57:43.106Z,6.60
2023-07-24T09:00:11.015Z,5.67
2023-07-24T09:02:38.620Z,6.03
2023-07-24T09:05:06.779Z,6.73
2023-07-24T09:07:34.352Z,6.53
2023-07-24T09:10:03.221Z,6.80
2023-07-24T09:12:30.765Z,7.00
2023-07-24T09:15:06.662Z,7.00
2023-07-24T09:17:35.005Z,6.50
2023-07-24T09:20:04.813Z,6.60
2023-07-24T09:22:32.964Z,6.27
2023-07-24T09:25:04.608Z,6.33
2023-07-24T09:27:33.143Z,6.87
2023-07-24T09:30:01.711Z,7.07
2023-07-24T09:32:30.223Z,7.20
2023-07-24T09:34:57.691Z,6.90
2023-07-24T09:37:26.237Z,6.50
2023-07-24T09:39:53.961Z,5.73
2023-07-24T09:42:30.478Z,6.83
2023-07-24T09:44:57.939Z,6.37
2023-07-24T09:47:33.145Z,6.90
2023-07-24T09:50:13.158Z,6.80
2023-07-24T09:52:43.628Z,6.43
2023-07-24T09:55:13.267Z,6.93
2023-07-24T09:57:42.387Z,6.60
2023-07-24T10:00:10.957Z,6.63
2023-07-24T10:02:38.493Z,6.90
2023-07-24T10:05:06.733Z,7.37
2023-07-24T10:07:34.362Z,6.63
2023-07-24T10:10:03.327Z,6.05
2023-07-24T10:12:32.246Z,5.80
2023-07-24T10:15:03.042Z,6.00
2023-07-24T10:17:37.790Z,5.90
2023-07-24T10:20:06.069Z,5.87
2023-07-24T10:22:34.026Z,6.60
2023-07-24T10:25:01.739Z,6.47
2023-07-24T10:27:29.629Z,6.10
2023-07-24T10:30:11.589Z,6.47
2023-07-24T10:32:54.176Z,6.90
2023-07-24T10:35:23.817Z,6.90
2023-07-24T10:38:00.630Z,7.57
2023-07-24T10:40:28.081Z,6.93
2023-07-24T10:43:00.852Z,7.28
2023-07-24T10:45:40.058Z,7.10
2023-07-24T10:48:07.652Z,7.15
2023-07-24T10:50:38.546Z,7.63
2023-07-24T10:53:06.012Z,7.32
2023-07-24T10:55:33.455Z,6.73
2023-07-24T10:58:00.908Z,6.73
2023-07-24T11:00:29.826Z,7.47
2023-07-24T11:02:57.557Z,7.53
2023-07-24T11:05:25.193Z,7.47
2023-07-24T11:07:52.715Z,7.65
2023-07-24T11:10:21.414Z,7.88
2023-07-24T11:12:49.288Z,7.37
2023-07-24T11:15:16.794Z,7.13
2023-07-24T11:17:45.564Z,7.17
2023-07-24T11:20:13.846Z,7.70
2023-07-24T11:22:42.069Z,7.67
2023-07-24T11:25:10.201Z,9.37
2023-07-24T11:27:42.726Z,10.63
2023-07-24T11:30:10.656Z,8.27
2023-07-24T11:32:39.936Z,8.40
2023-07-24T11:35:09.655Z,5.75
2023-07-24T11:37:37.235Z,5.47
2023-07-24T11:40:09.295Z,4.80
2023-07-24T11:42:38.622Z,4.20
2023-07-24T11:45:06.745Z,3.50
2023-07-24T11:47:42.736Z,3.20
2023-07-24T11:50:11.746Z,6.23
2023-07-24T11:52:40.124Z,4.00
2023-07-24T11:55:08.203Z,3.53
2023-07-24T11:57:35.714Z,4.00
2023-07-24T12:00:04.312Z,3.73
2023-07-24T12:02:35.544Z,3.60
2023-07-24T12:05:03.565Z,3.90
2023-07-24T12:07:33.935Z,4.00
2023-07-24T12:10:02.046Z,3.40
2023-07-24T12:12:38.777Z,4.30
2023-07-24T12:15:06.738Z,4.50
2023-07-24T12:17:34.277Z,4.10
2023-07-24T12:20:01.981Z,4.90
2023-07-24T12:22:31.359Z,5.20
2023-07-24T12:25:00.538Z,4.70
2023-07-24T12:27:28.030Z,4.43
2023-07-24T12:29:55.561Z,4.50
2023-07-24T12:32:23.963Z,4.20
2023-07-24T12:34:52.151Z,3.40
2023-07-24T12:37:19.722Z,4.30
2023-07-24T12:39:47.417Z,3.50
2023-07-24T12:42:16.316Z,3.57
2023-07-24T12:44:44.104Z,3.23
2023-07-24T12:47:11.939Z,3.87
2023-07-24T12:49:39.382Z,3.73
2023-07-24T12:52:07.114Z,3.37
2023-07-24T12:54:46.403Z,3.83
2023-07-24T12:57:29.630Z,3.87
2023-07-24T12:59:57.184Z,3.30
2023-07-24T13:02:24.822Z,3.63
2023-07-24T13:04:52.329Z,3.90
2023-07-24T13:07:19.951Z,3.50
2023-07-24T13:09:47.510Z,3.78
2023-07-24T13:12:15.080Z,3.57
2023-07-24T13:14:43.995Z,3.83
2023-07-24T13:17:11.593Z,3.93
2023-07-24T13:19:39.193Z,3.55
2023-07-24T13:22:07.082Z,3.70
2023-07-24T13:24:34.693Z,3.50
2023-07-24T13:27:02.191Z,3.83
2023-07-24T13:29:29.682Z,3.67
2023-07-24T13:31:58.578Z,3.43
2023-07-24T13:34:26.105Z,3.50
2023-07-24T13:36:53.619Z,3.73
2023-07-24T13:39:21.590Z,3.55
2023-07-24T13:41:49.010Z,3.60
2023-07-24T13:44:16.535Z,4.10
2023-07-24T13:46:43.995Z,3.90
2023-07-24T13:49:12.755Z,4.43
2023-07-24T13:51:40.219Z,4.25
2023-07-24T13:54:07.642Z,4.70
2023-07-24T13:56:36.840Z,5.13
2023-07-24T13:59:04.824Z,4.55
2023-07-24T14:01:32.616Z,4.90
2023-07-24T14:04:01.807Z,4.70
2023-07-24T14:06:30.816Z,4.60
2023-07-24T14:08:58.279Z,5.03
2023-07-24T14:11:27.861Z,4.57
2023-07-24T14:13:55.461Z,4.75
2023-07-24T14:16:22.936Z,4.78
2023-07-24T14:18:50.389Z,4.60
2023-07-24T14:21:17.956Z,5.00
2023-07-24T14:23:46.920Z,4.90
2023-07-24T14:26:14.420Z,4.87
2023-07-24T14:28:41.871Z,5.53
2023-07-24T14:31:09.433Z,5.88
2023-07-24T14:33:36.939Z,5.45
2023-07-24T14:36:04.579Z,5.03
2023-07-24T14:38:32.056Z,5.03
2023-07-24T14:41:00.843Z,4.75
2023-07-24T14:43:28.338Z,4.82
2023-07-24T14:45:55.890Z,4.90
2023-07-24T14:48:23.657Z,5.00
2023-07-24T14:50:58.765Z,4.35
2023-07-24T14:53:26.289Z,4.45
2023-07-24T14:55:53.744Z,4.65
2023-07-24T14:58:22.538Z,4.85
2023-07-24T15:00:50.166Z,4.60
2023-07-24T15:03:17.698Z,4.20
2023-07-24T15:05:45.307Z,5.03
2023-07-24T15:08:13.532Z,4.80
2023-07-24T15:10:41.009Z,4.30
2023-07-24T15:13:09.204Z,4.53
2023-07-24T15:15:40.273Z,4.30
2023-07-24T15:18:08.285Z,4.77
2023-07-24T15:20:35.805Z,4.37
2023-07-24T15:23:03.311Z,3.90
2023-07-24T15:25:30.863Z,4.60
2023-07-24T15:27:58.315Z,4.57
2023-07-24T15:30:26.480Z,3.97
2023-07-24T15:32:55.376Z,4.03
2023-07-24T15:35:22.917Z,3.87
2023-07-24T15:37:50.559Z,3.65
2023-07-24T15:40:18.081Z,3.70
2023-07-24T15:42:45.566Z,3.17
2023-07-24T15:45:13.023Z,2.70
2023-07-24T15:47:40.897Z,3.10
2023-07-24T15:50:10.059Z,2.92
2023-07-24T15:52:37.618Z,2.90
2023-07-24T15:55:05.457Z,3.00
2023-07-24T15:57:32.960Z,2.60
2023-07-24T16:00:00.381Z,2.65
2023-07-24T16:02:27.932Z,2.22
2023-07-24T16:04:55.565Z,2.63
2023-07-24T16:07:24.445Z,2.72
2023-07-24T16:09:51.967Z,2.50
2023-07-24T16:12:19.413Z,2.80
2023-07-24T16:14:46.887Z,2.50
2023-07-24T16:17:14.312Z,2.65
2023-07-24T16:19:42.243Z,3.00
2023-07-24T16:22:09.729Z,2.70
2023-07-24T16:24:38.906Z,2.65
2023-07-24T16:27:08.832Z,2.83
2023-07-24T16:29:36.969Z,2.88
2023-07-24T16:32:04.443Z,3.10
2023-07-24T16:34:32.365Z,2.70
2023-07-24T16:36:59.864Z,3.13
2023-07-24T16:39:27.410Z,3.25
2023-07-24T16:41:56.277Z,3.40
2023-07-24T16:44:33.136Z,3.25
2023-07-24T16:49:34.617Z,3.20
2023-07-24T16:52:03.871Z,3.30
2023-07-24T16:54:31.359Z,3.70
2023-07-24T16:57:00.166Z,3.63
2023-07-24T16:59:28.502Z,3.75
2023-07-24T17:01:56.471Z,3.00
2023-07-24T17:04:24.000Z,4.40
2023-07-24T17:06:51.459Z,3.60
2023-07-24T17:09:19.089Z,3.70
2023-07-24T17:11:46.630Z,3.60
2023-07-24T17:14:15.491Z,2.90
2023-07-24T17:16:42.980Z,3.23
2023-07-24T17:19:10.642Z,3.45
2023-07-24T17:21:38.267Z,3.40
2023-07-24T17:24:05.943Z,3.70
2023-07-24T17:26:35.339Z,3.70
2023-07-24T17:29:03.602Z,4.30
2023-07-24T17:31:32.703Z,3.50
2023-07-24T17:34:00.635Z,3.60
2023-07-24T17:36:28.487Z,4.10
2023-07-24T17:38:56.440Z,3.40
2023-07-24T17:41:23.967Z,3.80
2023-07-24T17:43:51.388Z,3.90
2023-07-24T17:46:18.820Z,3.70
2023-07-24T17:48:47.658Z,3.30
2023-07-24T17:51:15.084Z,3.70
2023-07-24T17:53:42.519Z,3.80
2023-07-24T17:56:09.981Z,3.07
2023-07-24T17:58:37.434Z,3.80
2023-07-24T18:01:04.995Z,3.53
2023-07-24T18:03:33.077Z,3.60
2023-07-24T18:06:01.936Z,3.30
2023-07-24T18:08:29.398Z,3.63
2023-07-24T18:10:57.519Z,3.47
2023-07-24T18:13:25.119Z,3.60
2023-07-24T18:15:52.528Z,3.40
2023-07-24T18:18:20.159Z,3.50
2023-07-24T18:20:47.774Z,3.60
2023-07-24T18:23:16.566Z,3.50
2023-07-24T18:25:43.982Z,3.57
2023-07-24T18:28:12.736Z,3.80
2023-07-24T18:30:40.253Z,3.53
2023-07-24T18:33:07.868Z,3.40
2023-07-24T18:35:35.306Z,3.53
2023-07-24T18:38:02.868Z,3.77
2023-07-24T18:40:31.834Z,3.67
2023-07-24T18:42:59.547Z,3.80
2023-07-24T18:45:27.055Z,3.87
2023-07-24T18:47:56.712Z,3.60
2023-07-24T18:50:24.205Z,3.70
2023-07-24T18:52:51.642Z,3.67
2023-07-24T18:55:19.075Z,4.37
2023-07-24T18:57:47.835Z,3.60
2023-07-24T19:00:17.911Z,3.90
2023-07-24T19:02:45.609Z,4.03
2023-07-24T19:05:13.132Z,3.57
2023-07-24T19:07:40.536Z,3.97
2023-07-24T19:10:11.011Z,3.93
2023-07-24T19:12:38.896Z,3.60
2023-07-24T19:15:09.012Z,3.70
2023-07-24T19:17:36.686Z,3.73
2023-07-24T19:20:04.426Z,4.17
2023-07-24T19:22:31.893Z,3.87
2023-07-24T19:24:59.488Z,3.80
2023-07-24T19:27:26.984Z,3.80
2023-07-24T19:29:54.632Z,4.00
2023-07-24T19:32:25.574Z,3.70
2023-07-24T19:34:53.136Z,4.30
2023-07-24T19:37:20.588Z,4.20
2023-07-24T19:39:49.243Z,3.70
2023-07-24T19:42:16.819Z,3.60
2023-07-24T19:44:44.338Z,3.90
2023-07-24T19:47:11.814Z,3.70
2023-07-24T19:49:42.129Z,4.00
2023-07-24T19:52:09.972Z,4.00
2023-07-24T19:54:37.803Z,4.30
2023-07-24T19:57:05.602Z,3.57
2023-07-24T19:59:33.069Z,3.77
2023-07-24T20:02:02.202Z,3.40
2023-07-24T20:04:29.649Z,3.53
2023-07-24T20:06:58.457Z,3.57
2023-07-24T20:09:25.910Z,3.40
2023-07-24T20:11:53.372Z,3.30
2023-07-24T20:14:20.818Z,3.50
2023-07-24T20:16:48.324Z,3.50
2023-07-24T20:19:15.776Z,3.20
2023-07-24T20:21:43.202Z,3.13
2023-07-24T20:24:13.024Z,2.77
2023-07-24T20:26:40.840Z,3.03
2023-07-24T20:29:08.355Z,3.23
2023-07-24T20:31:35.830Z,2.70
2023-07-24T20:34:03.435Z,2.93
2023-07-24T20:36:30.942Z,2.80
2023-07-24T20:38:58.404Z,2.70
2023-07-24T20:41:27.194Z,3.40
2023-07-24T20:43:54.673Z,2.83
2023-07-24T20:46:22.168Z,2.80
2023-07-24T20:48:49.787Z,3.03
2023-07-24T20:51:17.738Z,2.80
2023-07-24T20:53:45.289Z,3.00
2023-07-24T20:56:13.091Z,2.80
2023-07-24T20:58:42.194Z,3.77
2023-07-24T21:01:10.653Z,3.30
2023-07-24T21:03:38.159Z,3.03
2023-07-24T21:06:05.587Z,3.17
2023-07-24T21:08:33.060Z,3.03
2023-07-24T21:11:00.537Z,3.27
2023-07-24T21:13:27.987Z,3.10
2023-07-24T21:15:56.805Z,3.13
2023-07-24T21:18:24.269Z,3.00
2023-07-24T21:20:51.741Z,2.90
2023-07-24T21:23:19.212Z,2.93
2023-07-24T21:25:53.697Z,3.43
2023-07-24T21:28:21.120Z,4.80
2023-07-24T21:30:48.893Z,5.07
2023-07-24T21:33:18.032Z,4.90
2023-07-24T21:35:45.474Z,5.17
2023-07-24T21:38:13.387Z,5.40
2023-07-24T21:40:42.139Z,4.60
2023-07-24T21:43:09.568Z,4.30
2023-07-24T21:45:37.037Z,4.20
2023-07-24T21:48:05.927Z,4.30
2023-07-24T21:50:35.102Z,4.27
2023-07-24T21:53:03.060Z,3.77
2023-07-24T21:55:30.542Z,4.10
2023-07-24T21:57:57.999Z,3.83
2023-07-24T22:00:27.080Z,3.77
2023-07-24T22:02:54.656Z,3.70
2023-07-24T22:05:22.293Z,3.60
2023-07-24T22:07:51.192Z,3.17
2023-07-24T22:10:19.044Z,3.70
2023-07-24T22:12:46.540Z,3.70
2023-07-24T22:15:14.016Z,3.60
2023-07-24T22:17:41.506Z,3.73
2023-07-24T22:20:12.203Z,3.43
2023-07-24T22:22:42.380Z,3.47
2023-07-24T22:25:11.714Z,3.90
2023-07-24T22:27:39.963Z,3.97
2023-07-24T22:30:08.097Z,4.30
2023-07-24T22:32:35.583Z,4.50
2023-07-24T22:35:03.167Z,4.43
2023-07-24T22:37:30.673Z,4.43
2023-07-24T22:39:58.131Z,4.77
2023-07-24T22:42:26.934Z,4.30
2023-07-24T22:44:54.395Z,5.10
2023-07-24T22:47:21.942Z,5.50
2023-07-24T22:49:49.505Z,6.17
2023-07-24T22:52:16.938Z,5.77
2023-07-24T22:54:44.411Z,5.10
2023-07-24T22:57:11.864Z,4.60
2023-07-24T22:59:40.648Z,4.40
2023-07-24T23:02:08.141Z,4.60
2023-07-24T23:04:35.565Z,4.63
2023-07-24T23:07:03.043Z,4.00
2023-07-24T23:09:30.831Z,3.97
2023-07-24T23:11:58.266Z,4.20
2023-07-24T23:14:25.703Z,4.13
2023-07-24T23:16:54.604Z,4.63
2023-07-24T23:19:22.025Z,3.80
2023-07-24T23:21:49.438Z,5.10
2023-07-24T23:24:16.899Z,3.77
2023-07-24T23:26:44.438Z,4.13
2023-07-24T23:29:11.903Z,4.37
2023-07-24T23:31:39.377Z,4.60
2023-07-24T23:34:08.152Z,4.27
2023-07-24T23:36:35.609Z,3.93
2023-07-24T23:39:03.317Z,4.20
2023-07-24T23:41:31.272Z,3.97
2023-07-24T23:43:58.934Z,4.57
2023-07-24T23:46:26.479Z,4.33
2023-07-24T23:48:54.125Z,4.33
2023-07-24T23:51:23.474Z,4.37
2023-07-24T23:53:51.430Z,4.73
2023-07-24T23:56:19.932Z,4.10
2023-07-24T23:58:47.385Z,4.70
